Allenton, WI

11:09 PM CST on December 09, 2016 (GMT -0600)
Glacier Rd | | Change Station
Active Advisory: Winter Storm Watch

Elev 1122 ft 43.43 °N, 88.26 °W | Updated 3 seconds ago

Mostly Cloudy
Mostly Cloudy
16.3 °F
Feels Like 10 °F
N
3.7
Wind Variable Wind from West

Today
High -- | Low -- °F
--% Chance of Precip.
Yesterday
High -- | Low -- °F
Precip. -- in
Pressure 30.44 in
Visibility 10.0 miles
Clouds Scattered Clouds 3600 ft
Mostly Cloudy 6000 ft
Overcast 8500 ft
Windchill 10 °F
Dew Point 12 °F
Humidity 83%
Rainfall 0.00 in
Snow Depth Not available.
7:14 AM 4:17 PM
Waxing Gibbous, 80% visible
METAR KETB 100455Z AUTO 26005KT 10SM SCT036 BKN060 OVC085 M07/M11 A3044 RMK AO2
Pressure 30.44 in
Visibility 10.0 miles
Clouds Scattered Clouds 3600 ft
Mostly Cloudy 6000 ft
Overcast 8500 ft
Windchill 10 °F
Dew Point 12 °F
Humidity 83%
Rainfall 0.00 in
Snow Depth Not available.
7:14 AM 4:17 PM
Waxing Gibbous, 80% visible
METAR KETB 100455Z AUTO 26005KT 10SM SCT036 BKN060 OVC085 M07/M11 A3044 RMK AO2

10-Day Weather Forecast

Almanac

Astronomy

Dec. 09, 2016 Rise Set
Actual Time
Civil Twilight
Nautical Twilight
Astronomical Twilight
Moon
Length of Visible Light
Length of Day
Tomorrow will be .
, % of the Moon is Illuminated

Today's Extremes

State Highs State Lows

Community

WunderPhotos

Upload Photos

1,956,529 photos uploaded!

WunderBlog® & News

Nearby

Air Quality

  Air Quality AQ Index Pollutant
Not available.

Snow Depth

Station Depth Elevation

Earthquake Activity

City Distance Mag. Time & Date
Minimum magnitude displayed is 2.5.

Coastal Water Temperatures

Place Temperature

Stations

Nearby Weather Stations

Station Location Temp. Windchill Dew Point Humidity Wind Precip. Elev Updated Type
                   

Watches & Warnings

Winter Storm Watch
Issued: 9:24 PM CST Dec. 9, 2016 – National Weather Service

... Winter Storm Watch remains in effect from Saturday evening
through Sunday evening...

A Winter Storm Watch remains in effect from Saturday evening
through Sunday evening.

* Timing... snow developing Saturday evening continuing and through
Sunday.

* Snow accumulations... 6 to 10 inches.

* Winds... southeast 10 to 15 mph with gusts to 20 mph on Sunday
turning to the west later Sunday night into Monday morning.

* Impacts... hazardous travel conditions developing Saturday
night continuing into Sunday. Reduced visibility due to
falling snow with some drifting snow.

Precautionary/preparedness actions...

A Winter Storm Watch means there is a potential for significant
snow... sleet... or ice accumulations that may impact travel.
Continue to monitor the latest forecasts.



Mrc